Time;durP1;ratioP1;P1;durP2;ratioP2;P2;SDS_P1;SDS_P2;PMS_P1;PMS_P2;Temp;Humidity;BMP_temperature;BMP_pressure;BME280_temperature;BME280_humidity;BME280_pressure;Samples;Min_cycle;Max_cycle;Signal;HPM_P1;HPM_P2
2023/07/24 00:02:48;;;;;;;1.45;1.00;;;;;;;19.93;100.00;97542.84;15270295;19;20488;-49
2023/07/24 00:08:20;;;;;;;1.90;1.10;;;;;;;19.81;100.00;97537.38;15286818;19;20038;-48
2023/07/24 00:13:45;;;;;;;2.78;1.20;;;;;;;19.78;100.00;97531.56;15281420;19;20487;-49
2023/07/24 00:19:12;;;;;;;2.75;1.15;;;;;;;19.64;100.00;97520.91;15286715;19;20017;-49
2023/07/24 00:24:37;;;;;;;1.30;1.10;;;;;;;19.60;100.00;97530.66;15284005;19;20014;-49
2023/07/24 00:30:02;;;;;;;1.20;1.10;;;;;;;19.54;100.00;97509.78;15286239;19;20015;-52
2023/07/24 00:35:29;;;;;;;1.33;1.08;;;;;;;19.55;100.00;97509.53;15288146;19;20518;-49
2023/07/24 00:40:55;;;;;;;1.20;1.10;;;;;;;19.48;100.00;97510.72;15276363;19;20015;-52
2023/07/24 00:46:20;;;;;;;2.03;1.20;;;;;;;19.41;100.00;97508.13;15286368;19;20026;-50
2023/07/24 00:51:49;;;;;;;1.08;1.02;;;;;;;19.38;100.00;97492.25;15282684;19;20113;-53
2023/07/24 00:57:14;;;;;;;1.33;1.00;;;;;;;19.36;100.00;97492.47;15291552;19;20014;-52
2023/07/24 01:02:40;;;;;;;3.10;1.10;;;;;;;19.34;100.00;97478.25;15297199;19;20022;-52
2023/07/24 01:08:14;;;;;;;1.10;0.95;;;;;;;19.33;100.00;97460.22;15293973;19;20415;-52
2023/07/24 01:13:46;;;;;;;2.92;1.10;;;;;;;19.32;100.00;97476.81;15295762;19;20021;-54
2023/07/24 01:19:20;;;;;;;1.45;1.00;;;;;;;19.32;100.00;97491.31;15297736;19;20013;-52
2023/07/24 01:25:12;;;;;;;1.30;1.20;;;;;;;19.29;100.00;97497.25;15278099;19;20026;-49
2023/07/24 01:30:40;;;;;;;1.10;1.00;;;;;;;19.23;100.00;97485.38;15281559;19;20018;-50
2023/07/24 01:36:08;;;;;;;5.00;1.13;;;;;;;19.19;100.00;97477.91;15277502;19;20026;-47
2023/07/24 01:41:34;;;;;;;1.38;1.13;;;;;;;19.15;100.00;97485.78;15279836;19;20486;-46
2023/07/24 01:47:01;;;;;;;1.33;1.23;;;;;;;19.07;100.00;97486.97;15277102;19;20530;-48
2023/07/24 01:52:26;;;;;;;1.20;1.10;;;;;;;19.02;100.00;97486.03;15278580;19;20355;-46
2023/07/24 01:57:50;;;;;;;2.70;1.20;;;;;;;18.93;100.00;97478.19;15281211;19;20010;-47
2023/07/24 02:03:17;;;;;;;1.15;1.10;;;;;;;18.90;100.00;97477.78;15251032;19;20031;-46
2023/07/24 02:08:48;;;;;;;1.60;0.95;;;;;;;18.83;100.00;97468.91;15280057;19;20015;-47
2023/07/24 02:14:16;;;;;;;1.92;1.20;;;;;;;18.80;100.00;97462.03;15274474;19;20103;-46
2023/07/24 02:19:43;;;;;;;2.30;1.05;;;;;;;18.75;100.00;97460.03;15271547;19;20664;-51
2023/07/24 02:25:15;;;;;;;1.67;1.20;;;;;;;18.69;100.00;97460.97;15273377;19;20026;-48
2023/07/24 02:30:41;;;;;;;2.20;1.30;;;;;;;18.64;100.00;97463.56;15274355;19;20025;-47
2023/07/24 02:36:09;;;;;;;1.30;1.20;;;;;;;18.65;100.00;97454.31;15276291;19;20025;-50
2023/07/24 02:41:34;;;;;;;1.10;1.00;;;;;;;18.64;100.00;97453.50;15276806;19;20014;-51
2023/07/24 02:46:58;;;;;;;2.40;1.20;;;;;;;18.64;100.00;97447.19;15280162;19;20028;-51
2023/07/24 02:52:25;;;;;;;1.42;1.30;;;;;;;18.63;100.00;97440.09;15271216;19;20018;-51
2023/07/24 02:57:50;;;;;;;1.88;1.30;;;;;;;18.62;100.00;97438.44;15275834;19;20014;-48
2023/07/24 03:03:15;;;;;;;1.98;1.30;;;;;;;18.58;100.00;97431.78;15275155;19;20025;-50
2023/07/24 03:08:42;;;;;;;2.00;1.25;;;;;;;18.60;100.00;97433.22;15275748;19;20021;-49
2023/07/24 03:14:09;;;;;;;1.40;1.20;;;;;;;18.62;100.00;97422.06;15275486;19;20675;-47
2023/07/24 03:19:33;;;;;;;4.07;1.40;;;;;;;18.68;100.00;97421.13;15275889;19;20019;-48
2023/07/24 03:25:01;;;;;;;1.80;1.30;;;;;;;18.73;100.00;97417.66;15268606;19;20023;-47
2023/07/24 03:30:26;;;;;;;2.28;1.20;;;;;;;18.81;100.00;97413.75;15275972;19;20126;-47
2023/07/24 03:35:51;;;;;;;2.10;1.25;;;;;;;18.82;100.00;97409.94;15269352;19;20029;-47
2023/07/24 03:41:18;;;;;;;1.55;1.30;;;;;;;18.84;100.00;97407.81;15269962;19;20343;-47
2023/07/24 03:46:43;;;;;;;1.40;1.30;;;;;;;18.83;100.00;97414.34;15272506;19;20011;-47
2023/07/24 03:52:07;;;;;;;3.47;1.38;;;;;;;18.85;100.00;97404.03;15274208;19;20027;-46
2023/07/24 03:57:34;;;;;;;1.35;1.20;;;;;;;18.90;100.00;97412.28;15271281;19;20007;-45
2023/07/24 04:03:00;;;;;;;1.70;1.30;;;;;;;18.97;100.00;97399.41;15269931;19;20019;-46
2023/07/24 04:08:25;;;;;;;1.58;1.48;;;;;;;19.01;100.00;97400.56;15276379;19;20014;-49
2023/07/24 04:13:52;;;;;;;1.55;1.30;;;;;;;19.04;100.00;97400.09;15272999;19;20015;-46
2023/07/24 04:19:17;;;;;;;2.20;1.33;;;;;;;19.13;100.00;97405.16;15273929;19;20006;-48
2023/07/24 04:24:41;;;;;;;2.55;1.40;;;;;;;19.17;100.00;97393.50;15271618;19;20082;-50
2023/07/24 04:30:10;;;;;;;1.80;1.50;;;;;;;19.25;100.00;97386.84;15267531;19;20018;-50
2023/07/24 04:35:35;;;;;;;2.40;1.20;;;;;;;19.31;100.00;97390.50;15271050;19;20017;-47
2023/07/24 04:41:03;;;;;;;1.80;1.48;;;;;;;19.37;100.00;97382.16;15274256;19;20013;-50
2023/07/24 04:46:30;;;;;;;1.50;1.40;;;;;;;19.43;100.00;97377.63;15270103;19;20007;-47
2023/07/24 04:51:55;;;;;;;2.08;1.50;;;;;;;19.50;100.00;97382.94;15279635;19;20538;-46
2023/07/24 04:57:19;;;;;;;3.10;1.60;;;;;;;19.56;100.00;97390.16;15287231;19;20014;-46
2023/07/24 05:02:46;;;;;;;2.83;1.45;;;;;;;19.61;100.00;97395.72;15281561;19;20474;-49
2023/07/24 05:08:12;;;;;;;2.30;1.63;;;;;;;19.66;100.00;97389.50;15287832;19;20028;-49
2023/07/24 05:13:37;;;;;;;1.73;1.55;;;;;;;19.72;100.00;97394.00;15282448;19;20019;-52
2023/07/24 05:19:04;;;;;;;2.75;1.70;;;;;;;19.78;100.00;97389.47;15286133;19;20020;-47
2023/07/24 05:24:35;;;;;;;3.75;1.83;;;;;;;19.83;100.00;97389.53;15280427;19;20090;-47
2023/07/24 05:30:00;;;;;;;2.13;1.65;;;;;;;19.91;100.00;97380.97;15283777;19;20017;-47
2023/07/24 05:35:27;;;;;;;1.65;1.55;;;;;;;20.01;100.00;97386.63;15275758;19;20775;-49
2023/07/24 05:40:57;;;;;;;1.60;1.50;;;;;;;20.15;100.00;97365.22;15278166;19;20060;-46
2023/07/24 05:46:22;;;;;;;2.30;1.70;;;;;;;20.27;100.00;97376.09;15279961;19;20025;-47
2023/07/24 05:51:50;;;;;;;1.77;1.67;;;;;;;20.39;100.00;97369.69;15280041;19;20029;-51
2023/07/24 05:57:15;;;;;;;2.20;1.80;;;;;;;20.42;100.00;97361.81;15282531;19;20820;-49
2023/07/24 06:02:40;;;;;;;2.25;1.80;;;;;;;20.46;100.00;97349.25;15280252;19;20035;-46
2023/07/24 06:08:08;;;;;;;1.83;1.63;;;;;;;20.54;100.00;97341.72;15278188;19;20014;-47
2023/07/24 06:13:33;;;;;;;2.25;1.60;;;;;;;20.67;100.00;97351.47;15276309;19;20353;-48
2023/07/24 06:18:57;;;;;;;2.22;1.77;;;;;;;20.82;100.00;97357.19;15282026;19;20011;-47
2023/07/24 06:24:25;;;;;;;5.35;1.90;;;;;;;21.02;100.00;97344.81;15279125;19;20019;-47
2023/07/24 06:29:50;;;;;;;2.13;1.83;;;;;;;21.17;100.00;97339.53;15279547;19;20432;-47
2023/07/24 06:35:32;;;;;;;2.65;1.73;;;;;;;21.33;100.00;97335.03;15276080;19;20018;-48
2023/07/24 06:40:59;;;;;;;1.90;1.70;;;;;;;21.50;100.00;97345.88;15282091;19;20093;-47
2023/07/24 06:46:25;;;;;;;1.70;1.60;;;;;;;21.65;100.00;97347.16;15277019;19;20010;-47
2023/07/24 06:51:49;;;;;;;2.90;1.80;;;;;;;21.84;100.00;97348.41;15275593;19;20018;-48
2023/07/24 06:57:17;;;;;;;1.75;1.65;;;;;;;21.99;100.00;97347.72;15279516;19;20025;-49
2023/07/24 07:02:41;;;;;;;3.22;1.80;;;;;;;22.17;100.00;97340.19;15278441;19;20017;-51
2023/07/24 07:08:06;;;;;;;1.80;1.70;;;;;;;22.26;100.00;97324.06;15272372;19;20010;-50
2023/07/24 07:13:34;;;;;;;3.13;1.80;;;;;;;22.35;100.00;97336.19;15273035;19;20010;-47
2023/07/24 07:18:59;;;;;;;2.67;1.70;;;;;;;22.46;100.00;97332.44;15276512;19;20527;-50
2023/07/24 07:24:23;;;;;;;7.80;1.67;;;;;;;22.60;100.00;97321.81;15275549;19;20027;-47
2023/07/24 07:29:51;;;;;;;1.67;1.58;;;;;;;22.76;100.00;97321.88;15277741;19;20006;-46
2023/07/24 07:35:16;;;;;;;4.07;1.80;;;;;;;22.90;100.00;97311.22;15272998;19;20014;-53
2023/07/24 07:40:41;;;;;;;2.03;1.65;;;;;;;23.00;98.56;97325.00;15270437;19;20017;-50
2023/07/24 07:46:08;;;;;;;1.70;1.60;;;;;;;23.10;98.89;97324.22;15274798;19;20006;-52
2023/07/24 07:51:33;;;;;;;3.67;1.90;;;;;;;23.17;93.37;97313.78;15274760;19;20343;-49
2023/07/24 07:56:57;;;;;;;1.83;1.63;;;;;;;23.30;95.58;97301.50;15275043;19;20014;-52
2023/07/24 08:02:25;;;;;;;1.90;1.70;;;;;;;23.40;96.70;97306.19;15269806;19;20022;-50
2023/07/24 08:07:50;;;;;;;5.05;1.85;;;;;;;23.45;92.45;97297.94;15268684;19;20022;-51
2023/07/24 08:13:15;;;;;;;2.72;1.75;;;;;;;23.59;89.27;97291.91;15267484;19;20745;-53
2023/07/24 08:18:42;;;;;;;2.35;1.90;;;;;;;23.75;91.72;97295.50;15273280;19;20412;-53
2023/07/24 08:24:08;;;;;;;2.33;1.90;;;;;;;23.83;88.75;97303.19;15271647;19;20090;-52
2023/07/24 08:29:33;;;;;;;2.25;1.90;;;;;;;23.86;90.39;97302.63;15287508;19;20493;-49
2023/07/24 08:35:07;;;;;;;2.33;1.90;;;;;;;23.89;86.87;97302.09;15284899;19;20388;-51
2023/07/24 08:40:32;;;;;;;1.92;1.80;;;;;;;24.02;90.65;97286.16;15286512;19;20014;-52
2023/07/24 08:45:57;;;;;;;1.85;1.75;;;;;;;24.16;88.33;97290.00;15278971;19;20082;-51
2023/07/24 08:51:26;;;;;;;3.53;1.85;;;;;;;24.22;85.82;97290.81;15286954;19;20360;-50
2023/07/24 08:56:52;;;;;;;2.10;1.90;;;;;;;24.24;83.24;97297.69;15286654;19;20029;-50
2023/07/24 09:02:17;;;;;;;1.90;1.70;;;;;;;24.25;83.85;97291.09;15283886;19;20018;-49
2023/07/24 09:07:45;;;;;;;3.95;2.28;;;;;;;24.21;84.22;97281.72;15283140;19;20011;-49
2023/07/24 09:13:10;;;;;;;3.63;1.70;;;;;;;24.19;86.29;97277.59;15281937;19;20054;-49
2023/07/24 09:18:34;;;;;;;4.28;2.10;;;;;;;24.34;87.41;97301.50;15283624;19;20345;-49
2023/07/24 09:24:12;;;;;;;3.35;1.90;;;;;;;24.40;87.77;97272.88;15281524;19;20081;-52
2023/07/24 09:29:40;;;;;;;2.20;2.00;;;;;;;24.35;89.45;97273.69;15287549;19;20086;-53
2023/07/24 09:35:06;;;;;;;3.13;2.13;;;;;;;24.33;94.26;97259.41;15282018;19;20468;-51
2023/07/24 09:40:33;;;;;;;3.58;2.03;;;;;;;24.38;97.78;97258.56;15281798;19;20082;-53
2023/07/24 09:45:59;;;;;;;4.88;2.22;;;;;;;24.51;97.59;97246.97;15281284;19;20025;-53
2023/07/24 09:51:24;;;;;;;5.32;2.40;;;;;;;24.80;99.67;97240.81;15278445;19;20014;-54
2023/07/24 09:56:53;;;;;;;2.40;2.20;;;;;;;24.93;94.92;97240.19;15284490;19;20031;-53
2023/07/24 10:02:38;;;;;;;3.08;2.10;;;;;;;25.08;96.02;97228.25;15281579;19;20026;-53
2023/07/24 10:08:04;;;;;;;4.32;2.42;;;;;;;25.11;87.65;97218.56;15279953;19;20014;-53
2023/07/24 10:13:36;;;;;;;4.95;2.42;;;;;;;25.08;86.75;97225.47;15279730;19;20813;-49
2023/07/24 10:19:01;;;;;;;3.35;2.67;;;;;;;25.29;82.95;97221.78;15282715;19;20093;-51
2023/07/24 10:24:25;;;;;;;3.15;2.60;;;;;;;25.48;84.33;97208.97;15272651;19;20743;-50
2023/07/24 10:30:08;;;;;;;2.60;2.33;;;;;;;25.64;80.40;97190.34;15281414;19;20014;-50
2023/07/24 10:35:53;;;;;;;3.95;2.40;;;;;;;25.70;80.75;97188.34;15278093;19;20018;-50
2023/07/24 10:46:45;;;;;;;2.58;2.38;;;;;;;26.10;78.09;97169.78;15269920;19;20432;-52
2023/07/24 10:52:16;;;;;;;4.47;2.47;;;;;;;26.17;80.91;97179.66;15279506;19;20031;-57
2023/07/24 10:57:41;;;;;;;2.80;2.50;;;;;;;26.15;81.50;97160.59;15274336;19;20013;-54
2023/07/24 11:03:08;;;;;;;3.05;2.30;;;;;;;26.09;85.00;97176.38;15277786;19;20021;-55
2023/07/24 11:08:36;;;;;;;2.95;2.40;;;;;;;26.06;86.57;97168.66;15275886;19;20003;-54
2023/07/24 11:14:01;;;;;;;2.67;2.22;;;;;;;26.02;88.46;97167.63;15274184;19;20021;-51
2023/07/24 11:19:29;;;;;;;3.13;2.50;;;;;;;25.93;89.25;97161.13;15275992;19;20021;-57
2023/07/24 11:24:54;;;;;;;4.18;2.25;;;;;;;25.78;92.65;97156.56;15275289;19;20006;-50
2023/07/24 11:30:23;;;;;;;3.70;2.35;;;;;;;25.89;94.23;97160.03;15272580;19;20499;-56
2023/07/24 11:35:52;;;;;;;3.90;2.60;;;;;;;26.03;96.30;97132.56;15274919;19;20018;-55
2023/07/24 11:41:19;;;;;;;3.85;2.35;;;;;;;26.02;92.68;97148.31;15271364;19;20019;-52
2023/07/24 11:46:50;;;;;;;5.22;2.22;;;;;;;26.10;93.79;97147.69;15275970;19;20117;-51
2023/07/24 11:52:19;;;;;;;3.55;2.40;;;;;;;26.26;89.97;97128.19;15274282;19;20014;-56
2023/07/24 11:57:44;;;;;;;4.05;2.40;;;;;;;26.41;88.64;97113.34;15273285;19;20006;-53
2023/07/24 12:03:08;;;;;;;4.30;2.10;;;;;;;26.49;86.15;97096.13;15278986;19;20024;-53
2023/07/24 12:08:43;;;;;;;2.80;2.40;;;;;;;26.61;90.17;97099.25;15287028;19;20018;-52
2023/07/24 12:14:07;;;;;;;3.08;2.40;;;;;;;26.71;83.30;97095.53;15286602;19;20602;-55
2023/07/24 12:19:32;;;;;;;3.40;2.33;;;;;;;26.84;78.07;97093.16;15290955;19;20359;-52
2023/07/24 12:24:59;;;;;;;2.50;2.30;;;;;;;26.73;74.08;97093.28;15282772;19;20011;-54
2023/07/24 12:30:25;;;;;;;3.67;2.40;;;;;;;26.73;76.21;97076.72;15288499;19;20026;-54
2023/07/24 12:35:49;;;;;;;4.40;2.25;;;;;;;26.66;76.48;97075.44;15282352;19;20463;-53
2023/07/24 12:41:17;;;;;;;4.57;2.30;;;;;;;26.76;74.62;97067.00;15288538;19;20015;-55
2023/07/24 12:46:48;;;;;;;3.88;2.35;;;;;;;26.66;76.06;97065.19;15280417;19;20558;-58
2023/07/24 12:52:13;;;;;;;2.88;2.42;;;;;;;26.49;74.22;97062.97;15287567;19;20736;-56
2023/07/24 12:57:41;;;;;;;2.88;2.42;;;;;;;26.49;73.78;97053.88;15287836;19;20017;-57
2023/07/24 13:03:05;;;;;;;5.57;2.38;;;;;;;26.38;70.70;97048.50;15279828;19;20444;-53
2023/07/24 13:08:30;;;;;;;4.72;2.30;;;;;;;26.37;70.34;97044.09;15283467;19;20483;-57
2023/07/24 13:13:57;;;;;;;3.33;2.10;;;;;;;26.46;68.07;97030.47;15280581;19;20022;-54
2023/07/24 13:19:22;;;;;;;2.60;2.28;;;;;;;26.63;69.71;97009.75;15285590;19;20498;-56
2023/07/24 13:24:46;;;;;;;3.75;2.22;;;;;;;26.77;70.21;97029.97;15282815;19;20368;-55
2023/07/24 13:30:15;;;;;;;3.03;2.17;;;;;;;26.83;70.22;97014.16;15279952;19;20351;-55
2023/07/24 13:35:40;;;;;;;2.92;2.35;;;;;;;26.72;72.08;97008.78;15277127;19;20085;-55
2023/07/24 13:41:05;;;;;;;4.05;2.30;;;;;;;26.64;78.44;97008.63;15280964;19;20014;-56
2023/07/24 13:46:39;;;;;;;3.20;2.42;;;;;;;26.54;80.78;96995.78;15273413;19;20022;-50
2023/07/24 13:52:03;;;;;;;2.55;1.98;;;;;;;26.34;86.56;97011.56;15281528;19;20070;-54
2023/07/24 13:57:28;;;;;;;2.67;2.03;;;;;;;26.15;91.12;96989.47;15282332;19;20010;-53
2023/07/24 14:02:55;;;;;;;4.43;2.03;;;;;;;25.97;96.98;96994.69;15279533;19;20043;-55
2023/07/24 14:08:21;;;;;;;3.67;2.03;;;;;;;26.20;97.61;96975.63;15270569;19;20019;-54
2023/07/24 14:13:46;;;;;;;10.65;2.00;;;;;;;26.69;95.23;96959.66;15276197;19;20380;-52
2023/07/24 14:19:14;;;;;;;2.88;2.10;;;;;;;27.12;90.31;96958.63;15279249;19;20038;-53
2023/07/24 14:24:39;;;;;;;4.38;1.90;;;;;;;27.37;88.08;96948.22;15273362;19;20010;-53
2023/07/24 14:30:06;;;;;;;3.03;2.00;;;;;;;27.27;87.99;96932.63;15274073;19;20052;-53
2023/07/24 14:35:34;;;;;;;3.67;2.17;;;;;;;27.34;80.32;96916.44;15278568;19;20015;-52
2023/07/24 14:40:59;;;;;;;3.80;2.03;;;;;;;27.69;80.27;96899.44;15273174;19;20495;-52
2023/07/24 14:46:30;;;;;;;2.80;2.00;;;;;;;27.46;78.02;96881.97;15273233;19;20474;-52
2023/07/24 14:51:57;;;;;;;3.60;2.10;;;;;;;27.31;78.62;96870.06;15275190;19;20038;-55
2023/07/24 14:57:23;;;;;;;4.22;2.15;;;;;;;27.28;80.85;96864.34;15276916;19;20018;-49
2023/07/24 15:02:48;;;;;;;3.53;2.10;;;;;;;26.91;82.03;96856.78;15274747;19;20047;-50
2023/07/24 15:08:16;;;;;;;2.67;2.05;;;;;;;26.76;82.34;96862.56;15276375;19;20029;-53
2023/07/24 15:13:41;;;;;;;2.97;1.90;;;;;;;26.88;84.83;96859.31;15268421;19;20011;-54
2023/07/24 15:19:06;;;;;;;3.25;2.10;;;;;;;26.80;85.49;96873.84;15272166;19;20353;-51
2023/07/24 15:24:33;;;;;;;2.88;2.17;;;;;;;26.86;84.74;96869.88;15272926;19;20055;-50
2023/07/24 15:29:59;;;;;;;3.17;2.20;;;;;;;27.36;82.54;96872.72;15271891;19;20034;-51
2023/07/24 15:35:24;;;;;;;2.78;1.90;;;;;;;27.44;79.26;96873.13;15268692;19;20010;-52
2023/07/24 15:40:52;;;;;;;2.65;2.17;;;;;;;27.19;79.41;96872.53;15271264;19;20747;-50
2023/07/24 15:46:23;;;;;;;2.15;1.80;;;;;;;27.17;75.41;96852.66;15264965;19;20022;-52
2023/07/24 15:51:48;;;;;;;3.28;1.70;;;;;;;26.74;71.99;96887.75;15272420;19;20026;-54
2023/07/24 15:57:16;;;;;;;2.03;1.80;;;;;;;26.60;73.42;96884.94;15274458;19;20094;-49
2023/07/24 16:02:40;;;;;;;2.50;1.90;;;;;;;26.32;73.22;96886.81;15273468;19;20019;-54
2023/07/24 16:08:05;;;;;;;1.80;1.70;;;;;;;26.21;74.17;96877.91;15273739;19;20034;-54
2023/07/24 16:13:32;;;;;;;4.60;1.70;;;;;;;26.14;72.86;96861.72;15267870;19;20014;-53
2023/07/24 16:19:19;;;;;;;2.08;1.60;;;;;;;26.25;71.95;96861.56;15267649;19;20467;-53
2023/07/24 16:24:43;;;;;;;2.05;1.77;;;;;;;26.20;67.97;96842.31;15267185;19;20022;-52
2023/07/24 16:30:04;;;;;;;1.90;1.70;;;;;;;26.04;68.28;96834.28;15268486;19;20014;-55
2023/07/24 16:35:29;;;;;;;3.75;1.85;;;;;;;26.09;68.74;96833.38;15267368;19;20046;-49
2023/07/24 16:40:54;;;;;;;2.83;1.70;;;;;;;26.02;69.03;96825.47;15271478;19;20030;-48
2023/07/24 16:46:29;;;;;;;2.75;1.88;;;;;;;25.94;68.91;96810.41;15269291;19;20133;-55
2023/07/24 16:51:54;;;;;;;3.85;1.60;;;;;;;25.80;69.48;96829.69;15275894;19;20010;-49
2023/07/24 16:57:19;;;;;;;25.45;1.70;;;;;;;24.75;69.95;96932.41;15287825;19;20764;-56
2023/07/24 17:02:46;;;;;;;12.02;1.40;;;;;;;21.85;100.00;96960.78;15284239;19;20397;-50
2023/07/24 17:08:12;;;;;;;4.82;1.08;;;;;;;20.48;100.00;97020.75;15284443;19;20036;-55
2023/07/24 17:13:36;;;;;;;4.47;0.90;;;;;;;19.96;100.00;96998.38;15283357;19;20015;-50
2023/07/24 17:19:04;;;;;;;3.50;1.20;;;;;;;19.34;100.00;97026.84;15286897;19;20042;-52
2023/07/24 17:24:29;;;;;;;6.75;1.30;;;;;;;18.82;100.00;97045.16;15274699;19;20813;-51
2023/07/24 17:29:53;;;;;;;5.15;1.30;;;;;;;18.39;100.00;97047.47;14771752;19;10001196;-51
2023/07/24 17:35:20;;;;;;;1.98;1.15;;;;;;;18.16;100.00;97016.53;15278308;19;20022;-49
2023/07/24 17:40:46;;;;;;;2.80;1.10;;;;;;;17.91;100.00;97051.44;15282318;19;20014;-49
2023/07/24 17:46:18;;;;;;;4.10;1.30;;;;;;;17.62;100.00;97071.31;15278185;19;20021;-54
2023/07/24 17:51:46;;;;;;;4.03;1.40;;;;;;;17.29;100.00;97070.03;15276393;19;20026;-53
2023/07/24 17:57:12;;;;;;;2.72;1.27;;;;;;;16.98;100.00;97098.44;15278148;19;20388;-49
2023/07/24 18:02:38;;;;;;;3.30;1.20;;;;;;;16.69;100.00;97107.25;15277892;19;20053;-51
2023/07/24 18:08:05;;;;;;;3.83;1.27;;;;;;;16.56;100.00;97130.00;15277578;19;20022;-53
2023/07/24 18:13:31;;;;;;;3.08;1.30;;;;;;;16.43;100.00;97154.66;15273382;19;20019;-54
2023/07/24 18:18:57;;;;;;;5.72;1.70;;;;;;;16.41;100.00;97164.91;15281917;19;20050;-53
2023/07/24 18:24:26;;;;;;;5.22;1.67;;;;;;;16.47;100.00;97253.72;15274724;19;20096;-53
2023/07/24 18:29:52;;;;;;;3.65;1.60;;;;;;;16.49;100.00;97305.97;15268574;19;20053;-49
2023/07/24 18:35:18;;;;;;;3.25;1.33;;;;;;;16.50;100.00;97264.16;15274423;19;20035;-55
2023/07/24 18:40:47;;;;;;;3.00;1.50;;;;;;;16.52;100.00;97250.31;15276789;19;20017;-57
2023/07/24 18:46:20;;;;;;;2.05;1.30;;;;;;;16.59;100.00;97265.50;15275871;19;20045;-52
2023/07/24 18:51:46;;;;;;;4.60;1.63;;;;;;;16.62;100.00;97237.84;15267613;19;20188;-54
2023/07/24 18:57:14;;;;;;;2.17;1.38;;;;;;;16.72;100.00;97244.63;15271196;19;20022;-54
2023/07/24 19:02:39;;;;;;;3.67;1.27;;;;;;;16.73;100.00;97222.63;15263199;19;20006;-55
2023/07/24 19:08:04;;;;;;;3.22;1.30;;;;;;;16.77;100.00;97233.88;15275561;19;20022;-55
2023/07/24 19:13:38;;;;;;;2.30;1.20;;;;;;;16.79;100.00;97229.88;15272950;19;20511;-55
2023/07/24 19:19:07;;;;;;;4.20;1.40;;;;;;;16.83;100.00;97227.53;15277883;19;20024;-54
2023/07/24 19:24:32;;;;;;;2.92;1.50;;;;;;;16.82;100.00;97242.19;15270736;19;20018;-54
2023/07/24 19:30:02;;;;;;;2.17;1.30;;;;;;;16.84;100.00;97255.53;15274783;19;20018;-54
2023/07/24 19:35:27;;;;;;;2.35;1.30;;;;;;;16.83;100.00;97265.59;15271583;19;20476;-53
2023/07/24 19:40:57;;;;;;;2.40;1.50;;;;;;;16.83;100.00;97273.75;15274415;19;20010;-52
2023/07/24 19:46:24;;;;;;;2.25;1.52;;;;;;;16.80;100.00;97282.38;15272791;19;20022;-52
2023/07/24 19:51:50;;;;;;;2.60;1.60;;;;;;;16.73;100.00;97292.50;15273684;19;20022;-52
2023/07/24 19:57:15;;;;;;;2.63;1.63;;;;;;;16.68;100.00;97301.38;15247210;19;20014;-53
2023/07/24 20:02:45;;;;;;;3.20;1.80;;;;;;;16.66;100.00;97319.78;15266973;19;20422;-54
2023/07/24 20:08:10;;;;;;;2.47;1.50;;;;;;;16.64;100.00;97319.19;15273739;19;20017;-54
2023/07/24 20:13:35;;;;;;;3.60;1.67;;;;;;;16.57;100.00;97327.41;15270632;19;20781;-54
2023/07/24 20:19:02;;;;;;;2.42;1.50;;;;;;;16.55;100.00;97320.56;15275358;19;20044;-52
2023/07/24 20:24:28;;;;;;;3.80;1.50;;;;;;;16.54;100.00;97316.16;15277839;19;20023;-51
2023/07/24 20:29:52;;;;;;;2.13;1.35;;;;;;;16.55;100.00;97318.66;15283192;19;20015;-53
2023/07/24 20:35:19;;;;;;;2.05;1.35;;;;;;;16.51;100.00;97322.91;15274393;19;20016;-54
2023/07/24 20:40:44;;;;;;;3.08;1.50;;;;;;;16.46;100.00;97325.44;15283546;19;20664;-50
2023/07/24 20:46:19;;;;;;;3.63;1.60;;;;;;;16.36;100.00;97341.47;15280231;19;20530;-55
2023/07/24 20:51:47;;;;;;;4.43;1.70;;;;;;;16.26;100.00;97344.69;15278427;19;20031;-55
2023/07/24 20:57:15;;;;;;;3.53;1.80;;;;;;;16.17;100.00;97360.44;15283079;19;20023;-55
2023/07/24 21:02:40;;;;;;;2.97;1.60;;;;;;;16.17;100.00;97361.28;15280173;19;20501;-52
2023/07/24 21:08:07;;;;;;;2.58;1.65;;;;;;;16.18;100.00;97384.69;15279845;19;20052;-50
2023/07/24 21:13:32;;;;;;;3.80;1.70;;;;;;;16.20;100.00;97379.03;15280859;19;20030;-54
2023/07/24 21:18:56;;;;;;;1.95;1.60;;;;;;;16.23;100.00;97381.28;15286884;19;20356;-57
2023/07/24 21:24:23;;;;;;;2.97;1.70;;;;;;;16.27;100.00;97404.25;15281298;19;20014;-55
2023/07/24 21:29:48;;;;;;;2.00;1.80;;;;;;;16.28;100.00;97403.22;15282645;19;20014;-55
2023/07/24 21:35:13;;;;;;;2.15;1.80;;;;;;;16.29;100.00;97404.03;15290428;19;20069;-56
2023/07/24 21:40:40;;;;;;;2.75;1.70;;;;;;;16.26;100.00;97410.75;15283830;19;20007;-57
2023/07/24 21:46:11;;;;;;;2.38;1.52;;;;;;;16.24;100.00;97404.69;15279732;19;20030;-57
2023/07/24 21:51:36;;;;;;;2.78;1.75;;;;;;;16.22;100.00;97423.09;15274327;19;20011;-56
2023/07/24 21:57:03;;;;;;;2.42;1.55;;;;;;;16.19;100.00;97423.53;15282129;19;20372;-55
2023/07/24 22:02:28;;;;;;;2.05;1.65;;;;;;;16.15;100.00;97415.00;15278739;19;20022;-56
2023/07/24 22:07:52;;;;;;;1.92;1.23;;;;;;;16.14;100.00;97417.97;15281775;19;20019;-55
2023/07/24 22:13:19;;;;;;;1.38;1.13;;;;;;;16.16;100.00;97394.13;15268894;19;20219;-56
2023/07/24 22:18:44;;;;;;;4.50;1.27;;;;;;;16.14;100.00;97391.63;15281925;19;20015;-57
2023/07/24 22:24:09;;;;;;;1.90;1.10;;;;;;;16.08;100.00;97368.06;15277285;19;20014;-56
2023/07/24 22:29:36;;;;;;;2.30;0.80;;;;;;;16.06;100.00;97331.28;15281529;19;20035;-56
2023/07/24 22:35:01;;;;;;;1.38;0.90;;;;;;;16.01;100.00;97340.97;15276935;19;20022;-55
2023/07/24 22:40:26;;;;;;;2.53;0.90;;;;;;;16.01;100.00;97329.25;15277461;19;20014;-55
2023/07/24 22:45:53;;;;;;;1.58;0.73;;;;;;;15.97;100.00;97323.44;15266094;19;20011;-53
2023/07/24 22:51:18;;;;;;;1.60;0.77;;;;;;;15.91;100.00;97318.91;15275861;19;20024;-55
2023/07/24 22:56:44;;;;;;;1.00;0.80;;;;;;;15.80;100.00;97308.75;15276903;19;20025;-57
2023/07/24 23:02:11;;;;;;;1.15;0.70;;;;;;;15.67;100.00;97315.09;15277193;19;20045;-57
2023/07/24 23:07:36;;;;;;;1.52;0.70;;;;;;;15.56;100.00;97336.47;15276540;19;20535;-54
2023/07/24 23:13:01;;;;;;;2.05;0.80;;;;;;;15.49;100.00;97349.28;15266445;19;20082;-50
2023/07/24 23:18:31;;;;;;;2.95;0.90;;;;;;;15.44;100.00;97356.41;15270097;19;20010;-50
2023/07/24 23:23:55;;;;;;;2.28;0.80;;;;;;;15.44;100.00;97367.28;15271645;19;20030;-55
2023/07/24 23:29:20;;;;;;;3.60;0.90;;;;;;;15.43;100.00;97369.13;15280516;19;20007;-54
2023/07/24 23:34:47;;;;;;;2.50;0.85;;;;;;;15.45;100.00;97368.94;15274621;19;20034;-53
2023/07/24 23:40:12;;;;;;;1.02;0.65;;;;;;;15.44;100.00;97369.97;15275521;19;20014;-55
2023/07/24 23:45:44;;;;;;;0.73;0.60;;;;;;;15.45;100.00;97352.66;15272619;19;20021;-53
2023/07/24 23:51:18;;;;;;;0.82;0.60;;;;;;;15.44;100.00;97351.81;15267852;19;20007;-54
2023/07/24 23:56:42;;;;;;;1.35;0.80;;;;;;;15.44;100.00;97351.81;15272982;19;20019;-55
